sensor_id;sensor_type;location;lat;lon;timestamp;P1;durP1;ratioP1;P2;durP2;ratioP2
46128;SDS011;31860;45.186;5.790;2023-02-01T00:01:40;4.25;;;2.65;;
46128;SDS011;31860;45.186;5.790;2023-02-01T00:04:06;2.50;;;1.65;;
46128;SDS011;31860;45.186;5.790;2023-02-01T00:06:31;8.30;;;1.98;;
46128;SDS011;31860;45.186;5.790;2023-02-01T00:08:57;4.53;;;1.73;;
46128;SDS011;31860;45.186;5.790;2023-02-01T00:11:22;3.97;;;2.15;;
46128;SDS011;31860;45.186;5.790;2023-02-01T00:13:49;1.85;;;1.63;;
46128;SDS011;31860;45.186;5.790;2023-02-01T00:16:15;5.60;;;1.55;;
46128;SDS011;31860;45.186;5.790;2023-02-01T00:18:47;4.53;;;2.67;;
46128;SDS011;31860;45.186;5.790;2023-02-01T00:21:15;6.70;;;2.35;;
46128;SDS011;31860;45.186;5.790;2023-02-01T00:23:42;2.17;;;1.75;;
46128;SDS011;31860;45.186;5.790;2023-02-01T00:26:11;5.45;;;2.20;;
46128;SDS011;31860;45.186;5.790;2023-02-01T00:28:41;11.32;;;3.53;;
46128;SDS011;31860;45.186;5.790;2023-02-01T00:31:06;6.28;;;2.50;;
46128;SDS011;31860;45.186;5.790;2023-02-01T00:33:32;4.38;;;1.52;;
46128;SDS011;31860;45.186;5.790;2023-02-01T00:35:58;2.67;;;2.38;;
46128;SDS011;31860;45.186;5.790;2023-02-01T00:38:26;2.15;;;1.63;;
46128;SDS011;31860;45.186;5.790;2023-02-01T00:40:52;4.05;;;2.10;;
46128;SDS011;31860;45.186;5.790;2023-02-01T00:43:17;5.68;;;2.65;;
46128;SDS011;31860;45.186;5.790;2023-02-01T00:45:44;4.72;;;1.77;;
46128;SDS011;31860;45.186;5.790;2023-02-01T00:48:10;5.38;;;2.47;;
46128;SDS011;31860;45.186;5.790;2023-02-01T00:50:40;3.05;;;1.55;;
46128;SDS011;31860;45.186;5.790;2023-02-01T00:53:09;2.92;;;2.35;;
46128;SDS011;31860;45.186;5.790;2023-02-01T00:55:35;2.63;;;1.48;;
46128;SDS011;31860;45.186;5.790;2023-02-01T00:58:01;2.85;;;2.25;;
46128;SDS011;31860;45.186;5.790;2023-02-01T01:00:27;1.58;;;1.27;;
46128;SDS011;31860;45.186;5.790;2023-02-01T01:02:52;2.72;;;1.60;;
46128;SDS011;31860;45.186;5.790;2023-02-01T01:05:18;2.00;;;1.58;;
46128;SDS011;31860;45.186;5.790;2023-02-01T01:07:44;4.55;;;3.00;;
46128;SDS011;31860;45.186;5.790;2023-02-01T01:10:10;3.22;;;1.98;;
46128;SDS011;31860;45.186;5.790;2023-02-01T01:12:35;4.45;;;2.20;;
46128;SDS011;31860;45.186;5.790;2023-02-01T01:15:01;2.95;;;1.98;;
46128;SDS011;31860;45.186;5.790;2023-02-01T01:17:26;5.20;;;2.35;;
46128;SDS011;31860;45.186;5.790;2023-02-01T01:19:52;4.80;;;2.28;;
46128;SDS011;31860;45.186;5.790;2023-02-01T01:22:17;1.85;;;1.70;;
46128;SDS011;31860;45.186;5.790;2023-02-01T01:24:43;8.00;;;2.00;;
46128;SDS011;31860;45.186;5.790;2023-02-01T01:27:08;4.22;;;2.00;;
46128;SDS011;31860;45.186;5.790;2023-02-01T01:29:34;4.70;;;2.25;;
46128;SDS011;31860;45.186;5.790;2023-02-01T01:31:59;2.58;;;1.65;;
46128;SDS011;31860;45.186;5.790;2023-02-01T01:34:25;2.33;;;1.65;;
46128;SDS011;31860;45.186;5.790;2023-02-01T01:36:50;2.50;;;2.03;;
46128;SDS011;31860;45.186;5.790;2023-02-01T01:39:15;5.15;;;3.08;;
46128;SDS011;31860;45.186;5.790;2023-02-01T01:41:41;5.25;;;2.47;;
46128;SDS011;31860;45.186;5.790;2023-02-01T01:44:55;3.35;;;2.28;;
46128;SDS011;31860;45.186;5.790;2023-02-01T01:47:10;6.95;;;2.17;;
46128;SDS011;31860;45.186;5.790;2023-02-01T01:49:36;2.08;;;1.55;;
46128;SDS011;31860;45.186;5.790;2023-02-01T01:52:03;4.43;;;1.80;;
46128;SDS011;31860;45.186;5.790;2023-02-01T01:54:29;2.75;;;1.90;;
46128;SDS011;31860;45.186;5.790;2023-02-01T01:57:00;6.75;;;2.13;;
46128;SDS011;31860;45.186;5.790;2023-02-01T01:59:29;3.20;;;1.33;;
46128;SDS011;31860;45.186;5.790;2023-02-01T02:01:57;2.60;;;1.50;;
46128;SDS011;31860;45.186;5.790;2023-02-01T02:04:22;4.75;;;2.67;;
46128;SDS011;31860;45.186;5.790;2023-02-01T02:06:51;1.38;;;1.27;;
46128;SDS011;31860;45.186;5.790;2023-02-01T02:09:27;8.57;;;2.50;;
46128;SDS011;31860;45.186;5.790;2023-02-01T02:11:53;2.95;;;1.95;;
46128;SDS011;31860;45.186;5.790;2023-02-01T02:14:19;4.47;;;2.72;;
46128;SDS011;31860;45.186;5.790;2023-02-01T02:24:42;5.35;;;1.65;;
46128;SDS011;31860;45.186;5.790;2023-02-01T02:27:27;5.85;;;2.78;;
46128;SDS011;31860;45.186;5.790;2023-02-01T02:30:02;1.60;;;1.50;;
46128;SDS011;31860;45.186;5.790;2023-02-01T02:45:07;4.30;;;2.10;;
46128;SDS011;31860;45.186;5.790;2023-02-01T02:53:32;3.75;;;2.58;;
46128;SDS011;31860;45.186;5.790;2023-02-01T02:56:21;3.92;;;1.90;;
46128;SDS011;31860;45.186;5.790;2023-02-01T02:59:07;3.08;;;1.88;;
46128;SDS011;31860;45.186;5.790;2023-02-01T03:01:53;2.58;;;2.13;;
46128;SDS011;31860;45.186;5.790;2023-02-01T03:04:37;4.43;;;2.35;;
46128;SDS011;31860;45.186;5.790;2023-02-01T03:07:14;3.22;;;2.42;;
46128;SDS011;31860;45.186;5.790;2023-02-01T03:10:02;3.20;;;1.98;;
46128;SDS011;31860;45.186;5.790;2023-02-01T03:12:33;2.90;;;2.15;;
46128;SDS011;31860;45.186;5.790;2023-02-01T03:15:47;2.72;;;2.15;;
46128;SDS011;31860;45.186;5.790;2023-02-01T03:18:20;2.33;;;1.90;;
46128;SDS011;31860;45.186;5.790;2023-02-01T03:20:51;3.90;;;1.30;;
46128;SDS011;31860;45.186;5.790;2023-02-01T03:23:21;4.10;;;2.00;;
46128;SDS011;31860;45.186;5.790;2023-02-01T03:25:54;12.60;;;1.85;;
46128;SDS011;31860;45.186;5.790;2023-02-01T03:28:23;7.57;;;1.95;;
46128;SDS011;31860;45.186;5.790;2023-02-01T03:30:52;2.40;;;1.75;;
46128;SDS011;31860;45.186;5.790;2023-02-01T03:33:19;2.60;;;2.15;;
46128;SDS011;31860;45.186;5.790;2023-02-01T03:35:50;2.50;;;1.50;;
46128;SDS011;31860;45.186;5.790;2023-02-01T03:43:33;2.63;;;1.60;;
46128;SDS011;31860;45.186;5.790;2023-02-01T03:46:08;3.35;;;1.65;;
46128;SDS011;31860;45.186;5.790;2023-02-01T03:48:37;0.82;;;0.80;;
46128;SDS011;31860;45.186;5.790;2023-02-01T03:51:04;1.88;;;1.58;;
46128;SDS011;31860;45.186;5.790;2023-02-01T03:53:32;6.30;;;1.75;;
46128;SDS011;31860;45.186;5.790;2023-02-01T03:56:01;2.80;;;1.50;;
46128;SDS011;31860;45.186;5.790;2023-02-01T03:58:27;7.05;;;2.20;;
46128;SDS011;31860;45.186;5.790;2023-02-01T04:00:54;3.63;;;1.70;;
46128;SDS011;31860;45.186;5.790;2023-02-01T04:03:23;4.38;;;1.73;;
46128;SDS011;31860;45.186;5.790;2023-02-01T04:05:50;2.60;;;1.45;;
46128;SDS011;31860;45.186;5.790;2023-02-01T04:08:17;2.03;;;1.52;;
46128;SDS011;31860;45.186;5.790;2023-02-01T04:10:44;5.38;;;1.75;;
46128;SDS011;31860;45.186;5.790;2023-02-01T04:13:09;4.88;;;1.85;;
46128;SDS011;31860;45.186;5.790;2023-02-01T04:15:35;3.65;;;1.92;;
46128;SDS011;31860;45.186;5.790;2023-02-01T04:18:00;4.38;;;2.42;;
46128;SDS011;31860;45.186;5.790;2023-02-01T04:20:26;3.15;;;2.03;;
46128;SDS011;31860;45.186;5.790;2023-02-01T04:22:52;6.85;;;2.33;;
46128;SDS011;31860;45.186;5.790;2023-02-01T04:25:17;7.43;;;2.65;;
46128;SDS011;31860;45.186;5.790;2023-02-01T04:27:42;4.15;;;1.90;;
46128;SDS011;31860;45.186;5.790;2023-02-01T04:30:08;5.13;;;2.25;;
46128;SDS011;31860;45.186;5.790;2023-02-01T04:32:35;2.72;;;1.88;;
46128;SDS011;31860;45.186;5.790;2023-02-01T04:35:02;5.05;;;2.92;;
46128;SDS011;31860;45.186;5.790;2023-02-01T04:37:27;4.45;;;2.42;;
46128;SDS011;31860;45.186;5.790;2023-02-01T04:39:53;7.10;;;1.85;;
46128;SDS011;31860;45.186;5.790;2023-02-01T04:42:19;3.25;;;2.20;;
46128;SDS011;31860;45.186;5.790;2023-02-01T04:44:44;5.22;;;2.78;;
46128;SDS011;31860;45.186;5.790;2023-02-01T04:47:10;6.18;;;2.20;;
46128;SDS011;31860;45.186;5.790;2023-02-01T04:49:35;2.42;;;1.60;;
46128;SDS011;31860;45.186;5.790;2023-02-01T04:52:01;14.73;;;2.00;;
46128;SDS011;31860;45.186;5.790;2023-02-01T04:54:26;4.28;;;1.88;;
46128;SDS011;31860;45.186;5.790;2023-02-01T04:56:51;3.60;;;2.60;;
46128;SDS011;31860;45.186;5.790;2023-02-01T04:59:17;4.70;;;2.63;;
46128;SDS011;31860;45.186;5.790;2023-02-01T05:01:42;4.43;;;2.17;;
46128;SDS011;31860;45.186;5.790;2023-02-01T05:04:08;9.43;;;1.90;;
46128;SDS011;31860;45.186;5.790;2023-02-01T05:06:33;3.42;;;1.85;;
46128;SDS011;31860;45.186;5.790;2023-02-01T05:08:58;2.47;;;1.95;;
46128;SDS011;31860;45.186;5.790;2023-02-01T05:11:24;6.30;;;2.80;;
46128;SDS011;31860;45.186;5.790;2023-02-01T05:14:07;4.03;;;2.70;;
46128;SDS011;31860;45.186;5.790;2023-02-01T05:16:33;1.83;;;1.48;;
46128;SDS011;31860;45.186;5.790;2023-02-01T05:18:58;2.35;;;1.48;;
46128;SDS011;31860;45.186;5.790;2023-02-01T05:21:24;5.47;;;2.20;;
46128;SDS011;31860;45.186;5.790;2023-02-01T05:23:49;7.15;;;1.90;;
46128;SDS011;31860;45.186;5.790;2023-02-01T05:26:33;12.43;;;2.25;;
46128;SDS011;31860;45.186;5.790;2023-02-01T05:28:59;3.58;;;3.10;;
46128;SDS011;31860;45.186;5.790;2023-02-01T05:31:24;8.45;;;2.65;;
46128;SDS011;31860;45.186;5.790;2023-02-01T05:33:50;5.53;;;2.72;;
46128;SDS011;31860;45.186;5.790;2023-02-01T05:36:15;5.13;;;3.10;;
46128;SDS011;31860;45.186;5.790;2023-02-01T05:38:41;4.30;;;2.67;;
46128;SDS011;31860;45.186;5.790;2023-02-01T05:41:06;2.53;;;1.77;;
46128;SDS011;31860;45.186;5.790;2023-02-01T05:43:32;2.25;;;1.75;;
46128;SDS011;31860;45.186;5.790;2023-02-01T05:45:57;3.28;;;1.70;;
46128;SDS011;31860;45.186;5.790;2023-02-01T05:48:23;3.75;;;1.88;;
46128;SDS011;31860;45.186;5.790;2023-02-01T05:50:48;2.03;;;1.25;;
46128;SDS011;31860;45.186;5.790;2023-02-01T05:53:14;5.32;;;2.25;;
46128;SDS011;31860;45.186;5.790;2023-02-01T05:55:39;2.42;;;1.48;;
46128;SDS011;31860;45.186;5.790;2023-02-01T05:58:05;2.83;;;2.15;;
46128;SDS011;31860;45.186;5.790;2023-02-01T06:00:30;5.15;;;2.97;;
46128;SDS011;31860;45.186;5.790;2023-02-01T06:02:56;3.33;;;1.80;;
46128;SDS011;31860;45.186;5.790;2023-02-01T06:05:22;1.98;;;1.55;;
46128;SDS011;31860;45.186;5.790;2023-02-01T06:07:48;1.58;;;1.45;;
46128;SDS011;31860;45.186;5.790;2023-02-01T06:10:15;4.95;;;2.40;;
46128;SDS011;31860;45.186;5.790;2023-02-01T06:12:41;2.67;;;1.98;;
46128;SDS011;31860;45.186;5.790;2023-02-01T06:15:07;2.90;;;2.08;;
46128;SDS011;31860;45.186;5.790;2023-02-01T06:17:33;2.35;;;1.33;;
46128;SDS011;31860;45.186;5.790;2023-02-01T06:19:58;2.33;;;2.13;;
46128;SDS011;31860;45.186;5.790;2023-02-01T06:22:24;3.35;;;1.65;;
46128;SDS011;31860;45.186;5.790;2023-02-01T06:24:49;6.38;;;1.83;;
46128;SDS011;31860;45.186;5.790;2023-02-01T06:27:15;5.00;;;2.35;;
46128;SDS011;31860;45.186;5.790;2023-02-01T06:29:40;5.63;;;2.83;;
46128;SDS011;31860;45.186;5.790;2023-02-01T06:32:06;5.20;;;1.90;;
46128;SDS011;31860;45.186;5.790;2023-02-01T06:34:31;2.45;;;1.40;;
46128;SDS011;31860;45.186;5.790;2023-02-01T06:36:57;2.28;;;2.05;;
46128;SDS011;31860;45.186;5.790;2023-02-01T06:39:22;2.53;;;2.05;;
46128;SDS011;31860;45.186;5.790;2023-02-01T06:41:48;1.33;;;1.23;;
46128;SDS011;31860;45.186;5.790;2023-02-01T06:44:14;2.83;;;1.70;;
46128;SDS011;31860;45.186;5.790;2023-02-01T06:46:40;3.05;;;1.83;;
46128;SDS011;31860;45.186;5.790;2023-02-01T06:49:05;2.47;;;1.95;;
46128;SDS011;31860;45.186;5.790;2023-02-01T06:51:31;4.53;;;2.55;;
46128;SDS011;31860;45.186;5.790;2023-02-01T06:53:57;7.82;;;3.90;;
46128;SDS011;31860;45.186;5.790;2023-02-01T06:56:22;4.45;;;2.03;;
46128;SDS011;31860;45.186;5.790;2023-02-01T06:58:48;2.47;;;1.65;;
46128;SDS011;31860;45.186;5.790;2023-02-01T07:01:14;1.50;;;1.38;;
46128;SDS011;31860;45.186;5.790;2023-02-01T07:03:40;3.42;;;2.10;;
46128;SDS011;31860;45.186;5.790;2023-02-01T07:06:05;2.90;;;1.92;;
46128;SDS011;31860;45.186;5.790;2023-02-01T07:08:32;2.40;;;1.55;;
46128;SDS011;31860;45.186;5.790;2023-02-01T07:11:03;1.58;;;1.35;;
46128;SDS011;31860;45.186;5.790;2023-02-01T07:13:31;1.75;;;1.45;;
46128;SDS011;31860;45.186;5.790;2023-02-01T07:16:00;3.38;;;1.88;;
46128;SDS011;31860;45.186;5.790;2023-02-01T07:18:26;2.28;;;1.52;;
46128;SDS011;31860;45.186;5.790;2023-02-01T07:20:53;3.38;;;1.98;;
46128;SDS011;31860;45.186;5.790;2023-02-01T07:23:21;3.03;;;1.33;;
46128;SDS011;31860;45.186;5.790;2023-02-01T07:25:47;2.03;;;1.27;;
46128;SDS011;31860;45.186;5.790;2023-02-01T07:28:12;9.05;;;1.27;;
46128;SDS011;31860;45.186;5.790;2023-02-01T07:30:38;3.03;;;2.03;;
46128;SDS011;31860;45.186;5.790;2023-02-01T07:33:04;1.58;;;1.48;;
46128;SDS011;31860;45.186;5.790;2023-02-01T07:35:29;2.35;;;1.80;;
46128;SDS011;31860;45.186;5.790;2023-02-01T07:37:56;7.72;;;2.45;;
46128;SDS011;31860;45.186;5.790;2023-02-01T07:40:22;4.32;;;1.52;;
46128;SDS011;31860;45.186;5.790;2023-02-01T07:42:53;2.17;;;1.98;;
46128;SDS011;31860;45.186;5.790;2023-02-01T07:45:19;3.17;;;1.67;;
46128;SDS011;31860;45.186;5.790;2023-02-01T07:47:45;3.78;;;1.90;;
46128;SDS011;31860;45.186;5.790;2023-02-01T07:50:10;4.53;;;2.25;;
46128;SDS011;31860;45.186;5.790;2023-02-01T07:52:35;1.75;;;1.00;;
46128;SDS011;31860;45.186;5.790;2023-02-01T07:55:01;7.20;;;1.67;;
46128;SDS011;31860;45.186;5.790;2023-02-01T07:57:26;2.05;;;1.77;;
46128;SDS011;31860;45.186;5.790;2023-02-01T07:59:52;10.55;;;2.72;;
46128;SDS011;31860;45.186;5.790;2023-02-01T08:02:35;2.53;;;1.58;;
46128;SDS011;31860;45.186;5.790;2023-02-01T08:05:01;4.50;;;1.92;;
46128;SDS011;31860;45.186;5.790;2023-02-01T08:07:26;2.38;;;1.70;;
46128;SDS011;31860;45.186;5.790;2023-02-01T08:09:52;3.28;;;1.98;;
46128;SDS011;31860;45.186;5.790;2023-02-01T08:12:17;1.63;;;1.02;;
46128;SDS011;31860;45.186;5.790;2023-02-01T08:14:43;5.10;;;2.03;;
46128;SDS011;31860;45.186;5.790;2023-02-01T08:17:08;4.25;;;2.10;;
46128;SDS011;31860;45.186;5.790;2023-02-01T08:19:33;2.05;;;1.60;;
46128;SDS011;31860;45.186;5.790;2023-02-01T08:21:59;4.70;;;1.60;;
46128;SDS011;31860;45.186;5.790;2023-02-01T08:24:26;3.13;;;1.90;;
46128;SDS011;31860;45.186;5.790;2023-02-01T08:26:52;2.78;;;1.25;;
46128;SDS011;31860;45.186;5.790;2023-02-01T08:29:17;2.50;;;1.25;;
46128;SDS011;31860;45.186;5.790;2023-02-01T08:31:43;7.25;;;3.10;;
46128;SDS011;31860;45.186;5.790;2023-02-01T08:34:08;2.63;;;1.65;;
46128;SDS011;31860;45.186;5.790;2023-02-01T08:36:34;5.80;;;1.83;;
46128;SDS011;31860;45.186;5.790;2023-02-01T08:39:00;3.55;;;1.80;;
46128;SDS011;31860;45.186;5.790;2023-02-01T08:41:27;4.35;;;2.35;;
46128;SDS011;31860;45.186;5.790;2023-02-01T08:43:54;6.85;;;2.75;;
46128;SDS011;31860;45.186;5.790;2023-02-01T08:46:21;4.45;;;2.20;;
46128;SDS011;31860;45.186;5.790;2023-02-01T08:48:47;8.00;;;2.50;;
46128;SDS011;31860;45.186;5.790;2023-02-01T08:51:14;2.78;;;1.35;;
46128;SDS011;31860;45.186;5.790;2023-02-01T08:53:42;2.60;;;2.22;;
46128;SDS011;31860;45.186;5.790;2023-02-01T08:56:08;1.88;;;1.55;;
46128;SDS011;31860;45.186;5.790;2023-02-01T08:58:34;3.25;;;2.05;;
46128;SDS011;31860;45.186;5.790;2023-02-01T09:01:08;6.60;;;2.10;;
46128;SDS011;31860;45.186;5.790;2023-02-01T09:03:37;2.70;;;1.75;;
46128;SDS011;31860;45.186;5.790;2023-02-01T09:06:03;2.70;;;1.55;;
46128;SDS011;31860;45.186;5.790;2023-02-01T09:08:30;2.78;;;1.85;;
46128;SDS011;31860;45.186;5.790;2023-02-01T09:11:00;3.08;;;1.70;;
46128;SDS011;31860;45.186;5.790;2023-02-01T09:13:27;2.70;;;1.83;;
46128;SDS011;31860;45.186;5.790;2023-02-01T09:15:52;3.17;;;2.35;;
46128;SDS011;31860;45.186;5.790;2023-02-01T09:18:18;3.63;;;2.25;;
46128;SDS011;31860;45.186;5.790;2023-02-01T09:20:44;2.40;;;1.58;;
46128;SDS011;31860;45.186;5.790;2023-02-01T09:23:10;2.42;;;1.85;;
46128;SDS011;31860;45.186;5.790;2023-02-01T09:25:36;3.80;;;2.25;;
46128;SDS011;31860;45.186;5.790;2023-02-01T09:28:03;7.63;;;2.33;;
46128;SDS011;31860;45.186;5.790;2023-02-01T09:30:31;2.53;;;1.52;;
46128;SDS011;31860;45.186;5.790;2023-02-01T09:32:57;2.20;;;1.55;;
46128;SDS011;31860;45.186;5.790;2023-02-01T09:35:22;4.13;;;2.22;;
46128;SDS011;31860;45.186;5.790;2023-02-01T09:37:48;2.50;;;1.42;;
46128;SDS011;31860;45.186;5.790;2023-02-01T09:40:14;3.08;;;2.10;;
46128;SDS011;31860;45.186;5.790;2023-02-01T09:48:36;1.60;;;1.13;;
46128;SDS011;31860;45.186;5.790;2023-02-01T09:51:11;3.13;;;1.52;;
46128;SDS011;31860;45.186;5.790;2023-02-01T09:53:41;2.63;;;1.02;;
46128;SDS011;31860;45.186;5.790;2023-02-01T09:58:39;2.25;;;1.95;;
46128;SDS011;31860;45.186;5.790;2023-02-01T10:10:09;2.15;;;1.33;;
46128;SDS011;31860;45.186;5.790;2023-02-01T10:23:33;2.40;;;1.73;;
46128;SDS011;31860;45.186;5.790;2023-02-01T10:28:49;0.93;;;0.90;;
46128;SDS011;31860;45.186;5.790;2023-02-01T10:31:16;3.70;;;1.27;;
46128;SDS011;31860;45.186;5.790;2023-02-01T10:33:44;1.88;;;1.00;;
46128;SDS011;31860;45.186;5.790;2023-02-01T10:36:19;4.47;;;1.83;;
46128;SDS011;31860;45.186;5.790;2023-02-01T10:38:48;2.85;;;1.55;;
46128;SDS011;31860;45.186;5.790;2023-02-01T10:41:19;1.25;;;1.15;;
46128;SDS011;31860;45.186;5.790;2023-02-01T10:43:52;1.40;;;1.00;;
46128;SDS011;31860;45.186;5.790;2023-02-01T10:46:20;1.75;;;1.27;;
46128;SDS011;31860;45.186;5.790;2023-02-01T10:48:47;1.35;;;1.17;;
46128;SDS011;31860;45.186;5.790;2023-02-01T10:51:16;1.45;;;1.35;;
46128;SDS011;31860;45.186;5.790;2023-02-01T10:53:57;3.05;;;1.15;;
46128;SDS011;31860;45.186;5.790;2023-02-01T10:56:27;0.90;;;0.77;;
46128;SDS011;31860;45.186;5.790;2023-02-01T10:59:00;1.35;;;1.25;;
46128;SDS011;31860;45.186;5.790;2023-02-01T11:01:29;4.40;;;1.70;;
46128;SDS011;31860;45.186;5.790;2023-02-01T11:03:58;1.80;;;1.17;;
46128;SDS011;31860;45.186;5.790;2023-02-01T11:06:33;2.28;;;1.40;;
46128;SDS011;31860;45.186;5.790;2023-02-01T11:09:14;3.75;;;1.05;;
46128;SDS011;31860;45.186;5.790;2023-02-01T11:16:43;1.20;;;0.98;;
46128;SDS011;31860;45.186;5.790;2023-02-01T11:19:14;2.40;;;1.80;;
46128;SDS011;31860;45.186;5.790;2023-02-01T11:21:42;1.73;;;1.52;;
46128;SDS011;31860;45.186;5.790;2023-02-01T11:24:16;2.35;;;1.20;;
46128;SDS011;31860;45.186;5.790;2023-02-01T11:26:48;1.08;;;0.98;;
46128;SDS011;31860;45.186;5.790;2023-02-01T11:29:15;1.58;;;1.48;;
46128;SDS011;31860;45.186;5.790;2023-02-01T11:31:47;1.80;;;1.35;;
46128;SDS011;31860;45.186;5.790;2023-02-01T11:36:45;2.47;;;1.38;;
46128;SDS011;31860;45.186;5.790;2023-02-01T11:42:11;2.08;;;1.25;;
46128;SDS011;31860;45.186;5.790;2023-02-01T11:44:45;0.43;;;0.43;;
46128;SDS011;31860;45.186;5.790;2023-02-01T11:47:18;1.15;;;1.05;;
46128;SDS011;31860;45.186;5.790;2023-02-01T11:49:47;0.98;;;0.80;;
46128;SDS011;31860;45.186;5.790;2023-02-01T11:54:53;0.95;;;0.63;;
46128;SDS011;31860;45.186;5.790;2023-02-01T11:57:27;0.90;;;0.50;;
46128;SDS011;31860;45.186;5.790;2023-02-01T12:14:02;0.50;;;0.50;;
46128;SDS011;31860;45.186;5.790;2023-02-01T12:19:34;0.90;;;0.60;;
46128;SDS011;31860;45.186;5.790;2023-02-01T12:38:49;1.15;;;1.05;;
46128;SDS011;31860;45.186;5.790;2023-02-01T12:44:18;0.77;;;0.77;;
46128;SDS011;31860;45.186;5.790;2023-02-01T12:49:27;2.83;;;1.15;;
46128;SDS011;31860;45.186;5.790;2023-02-01T12:52:03;0.30;;;0.30;;
46128;SDS011;31860;45.186;5.790;2023-02-01T13:00:47;0.80;;;0.80;;
46128;SDS011;31860;45.186;5.790;2023-02-01T13:08:48;0.63;;;0.52;;
46128;SDS011;31860;45.186;5.790;2023-02-01T13:11:38;3.20;;;0.60;;
46128;SDS011;31860;45.186;5.790;2023-02-01T13:14:22;0.68;;;0.60;;
46128;SDS011;31860;45.186;5.790;2023-02-01T13:16:49;0.40;;;0.40;;
46128;SDS011;31860;45.186;5.790;2023-02-01T13:21:48;1.98;;;1.13;;
46128;SDS011;31860;45.186;5.790;2023-02-01T13:27:11;0.32;;;0.32;;
46128;SDS011;31860;45.186;5.790;2023-02-01T13:29:44;0.60;;;0.60;;
46128;SDS011;31860;45.186;5.790;2023-02-01T13:32:23;2.03;;;1.25;;
46128;SDS011;31860;45.186;5.790;2023-02-01T13:35:29;0.40;;;0.40;;
46128;SDS011;31860;45.186;5.790;2023-02-01T13:40:44;1.75;;;0.85;;
46128;SDS011;31860;45.186;5.790;2023-02-01T13:43:22;1.33;;;0.77;;
46128;SDS011;31860;45.186;5.790;2023-02-01T13:45:52;0.40;;;0.40;;
46128;SDS011;31860;45.186;5.790;2023-02-01T13:48:24;1.35;;;0.80;;
46128;SDS011;31860;45.186;5.790;2023-02-01T13:50:56;0.77;;;0.77;;
46128;SDS011;31860;45.186;5.790;2023-02-01T13:53:27;0.63;;;0.63;;
46128;SDS011;31860;45.186;5.790;2023-02-01T13:58:36;0.52;;;0.52;;
46128;SDS011;31860;45.186;5.790;2023-02-01T14:06:15;0.50;;;0.50;;
46128;SDS011;31860;45.186;5.790;2023-02-01T14:08:44;2.38;;;0.80;;
46128;SDS011;31860;45.186;5.790;2023-02-01T14:11:32;0.85;;;0.68;;
46128;SDS011;31860;45.186;5.790;2023-02-01T14:16:40;0.55;;;0.55;;
46128;SDS011;31860;45.186;5.790;2023-02-01T14:19:17;0.70;;;0.70;;
46128;SDS011;31860;45.186;5.790;2023-02-01T14:21:48;0.63;;;0.60;;
46128;SDS011;31860;45.186;5.790;2023-02-01T14:24:32;1.45;;;0.70;;
46128;SDS011;31860;45.186;5.790;2023-02-01T14:27:00;1.38;;;0.50;;
46128;SDS011;31860;45.186;5.790;2023-02-01T14:29:39;0.50;;;0.50;;
46128;SDS011;31860;45.186;5.790;2023-02-01T14:32:11;0.55;;;0.40;;
46128;SDS011;31860;45.186;5.790;2023-02-01T15:01:27;0.20;;;0.20;;
46128;SDS011;31860;45.186;5.790;2023-02-01T15:04:05;0.75;;;0.65;;
46128;SDS011;31860;45.186;5.790;2023-02-01T15:09:24;0.28;;;0.28;;
46128;SDS011;31860;45.186;5.790;2023-02-01T15:14:25;0.35;;;0.35;;
46128;SDS011;31860;45.186;5.790;2023-02-01T15:16:51;0.38;;;0.20;;
46128;SDS011;31860;45.186;5.790;2023-02-01T15:19:24;0.68;;;0.68;;
46128;SDS011;31860;45.186;5.790;2023-02-01T15:21:52;0.30;;;0.30;;
46128;SDS011;31860;45.186;5.790;2023-02-01T15:24:20;0.52;;;0.50;;
46128;SDS011;31860;45.186;5.790;2023-02-01T15:26:46;0.30;;;0.30;;
46128;SDS011;31860;45.186;5.790;2023-02-01T15:29:12;0.40;;;0.40;;
46128;SDS011;31860;45.186;5.790;2023-02-01T15:31:43;0.35;;;0.35;;
46128;SDS011;31860;45.186;5.790;2023-02-01T15:34:10;0.40;;;0.40;;
46128;SDS011;31860;45.186;5.790;2023-02-01T15:36:36;0.35;;;0.35;;
46128;SDS011;31860;45.186;5.790;2023-02-01T15:39:21;1.55;;;0.50;;
46128;SDS011;31860;45.186;5.790;2023-02-01T15:41:57;0.20;;;0.20;;
46128;SDS011;31860;45.186;5.790;2023-02-01T15:47:07;0.68;;;0.50;;
46128;SDS011;31860;45.186;5.790;2023-02-01T15:49:46;0.20;;;0.20;;
46128;SDS011;31860;45.186;5.790;2023-02-01T15:54:47;0.50;;;0.50;;
46128;SDS011;31860;45.186;5.790;2023-02-01T15:57:22;0.20;;;0.20;;
46128;SDS011;31860;45.186;5.790;2023-02-01T15:59:55;0.57;;;0.57;;
46128;SDS011;31860;45.186;5.790;2023-02-01T16:02:27;0.30;;;0.30;;
46128;SDS011;31860;45.186;5.790;2023-02-01T16:04:53;0.88;;;0.63;;
46128;SDS011;31860;45.186;5.790;2023-02-01T16:07:29;26.77;;;7.05;;
46128;SDS011;31860;45.186;5.790;2023-02-01T16:09:57;11.93;;;6.57;;
46128;SDS011;31860;45.186;5.790;2023-02-01T16:15:03;8.35;;;5.22;;
46128;SDS011;31860;45.186;5.790;2023-02-01T16:17:29;2.72;;;2.05;;
46128;SDS011;31860;45.186;5.790;2023-02-01T16:19:55;3.92;;;1.95;;
46128;SDS011;31860;45.186;5.790;2023-02-01T16:22:22;3.00;;;1.33;;
46128;SDS011;31860;45.186;5.790;2023-02-01T16:24:47;1.00;;;0.95;;
46128;SDS011;31860;45.186;5.790;2023-02-01T16:27:13;1.33;;;1.02;;
46128;SDS011;31860;45.186;5.790;2023-02-01T16:29:38;1.00;;;0.85;;
46128;SDS011;31860;45.186;5.790;2023-02-01T16:32:04;0.60;;;0.60;;
46128;SDS011;31860;45.186;5.790;2023-02-01T16:34:30;0.68;;;0.68;;
46128;SDS011;31860;45.186;5.790;2023-02-01T16:37:02;0.70;;;0.65;;
46128;SDS011;31860;45.186;5.790;2023-02-01T16:39:28;0.40;;;0.40;;
46128;SDS011;31860;45.186;5.790;2023-02-01T16:41:58;1.63;;;1.13;;
46128;SDS011;31860;45.186;5.790;2023-02-01T16:44:23;0.98;;;0.85;;
46128;SDS011;31860;45.186;5.790;2023-02-01T16:46:50;4.13;;;1.17;;
46128;SDS011;31860;45.186;5.790;2023-02-01T16:49:23;1.08;;;0.90;;
46128;SDS011;31860;45.186;5.790;2023-02-01T16:51:50;1.45;;;0.75;;
46128;SDS011;31860;45.186;5.790;2023-02-01T16:54:18;0.60;;;0.60;;
46128;SDS011;31860;45.186;5.790;2023-02-01T16:56:44;1.75;;;0.75;;
46128;SDS011;31860;45.186;5.790;2023-02-01T16:59:10;1.33;;;1.10;;
46128;SDS011;31860;45.186;5.790;2023-02-01T17:01:36;0.63;;;0.63;;
46128;SDS011;31860;45.186;5.790;2023-02-01T17:04:06;1.55;;;1.30;;
46128;SDS011;31860;45.186;5.790;2023-02-01T17:06:32;0.68;;;0.68;;
46128;SDS011;31860;45.186;5.790;2023-02-01T17:09:01;1.75;;;0.80;;
46128;SDS011;31860;45.186;5.790;2023-02-01T17:11:28;0.55;;;0.55;;
46128;SDS011;31860;45.186;5.790;2023-02-01T17:14:13;0.55;;;0.32;;
46128;SDS011;31860;45.186;5.790;2023-02-01T17:16:41;0.68;;;0.68;;
46128;SDS011;31860;45.186;5.790;2023-02-01T17:19:10;0.65;;;0.65;;
46128;SDS011;31860;45.186;5.790;2023-02-01T17:21:46;0.50;;;0.50;;
46128;SDS011;31860;45.186;5.790;2023-02-01T17:24:17;0.93;;;0.57;;
46128;SDS011;31860;45.186;5.790;2023-02-01T17:26:44;2.10;;;0.70;;
46128;SDS011;31860;45.186;5.790;2023-02-01T17:29:10;1.23;;;0.93;;
46128;SDS011;31860;45.186;5.790;2023-02-01T17:31:37;0.60;;;0.60;;
46128;SDS011;31860;45.186;5.790;2023-02-01T17:34:05;0.50;;;0.50;;
46128;SDS011;31860;45.186;5.790;2023-02-01T17:36:31;0.52;;;0.50;;
46128;SDS011;31860;45.186;5.790;2023-02-01T17:38:56;0.50;;;0.50;;
46128;SDS011;31860;45.186;5.790;2023-02-01T17:41:23;0.68;;;0.50;;
46128;SDS011;31860;45.186;5.790;2023-02-01T17:43:48;0.47;;;0.38;;
46128;SDS011;31860;45.186;5.790;2023-02-01T17:46:17;0.65;;;0.65;;
46128;SDS011;31860;45.186;5.790;2023-02-01T17:48:44;0.30;;;0.30;;
46128;SDS011;31860;45.186;5.790;2023-02-01T17:51:15;0.60;;;0.60;;
46128;SDS011;31860;45.186;5.790;2023-02-01T17:56:14;0.98;;;0.40;;
46128;SDS011;31860;45.186;5.790;2023-02-01T17:58:42;0.73;;;0.63;;
46128;SDS011;31860;45.186;5.790;2023-02-01T18:01:14;0.43;;;0.43;;
46128;SDS011;31860;45.186;5.790;2023-02-01T18:03:43;0.55;;;0.30;;
46128;SDS011;31860;45.186;5.790;2023-02-01T18:06:10;1.25;;;0.60;;